createdAt,value
2022-10-24T00:00:33.950Z,3.40
2022-10-24T00:03:00.469Z,3.53
2022-10-24T00:05:27.003Z,3.13
2022-10-24T00:07:53.638Z,3.20
2022-10-24T00:10:20.756Z,3.97
2022-10-24T00:12:47.546Z,4.75
2022-10-24T00:15:14.569Z,3.03
2022-10-24T00:17:41.039Z,3.38
2022-10-24T00:20:08.323Z,3.53
2022-10-24T00:22:34.762Z,3.75
2022-10-24T00:25:01.472Z,3.15
2022-10-24T00:27:27.919Z,3.30
2022-10-24T00:29:54.477Z,4.28
2022-10-24T00:32:20.957Z,3.42
2022-10-24T00:34:47.529Z,4.00
2022-10-24T00:37:14.005Z,2.95
2022-10-24T00:39:40.597Z,3.28
2022-10-24T00:42:07.373Z,3.70
2022-10-24T00:44:38.528Z,3.22
2022-10-24T00:47:12.874Z,3.13
2022-10-24T00:49:45.237Z,3.63
2022-10-24T00:52:13.594Z,3.42
2022-10-24T00:54:42.244Z,3.28
2022-10-24T00:57:18.590Z,3.97
2022-10-24T00:59:47.820Z,3.75
2022-10-24T01:04:47.676Z,3.53
2022-10-24T01:07:19.436Z,3.13
2022-10-24T01:10:04.227Z,3.70
2022-10-24T01:12:57.195Z,3.20
2022-10-24T01:15:34.996Z,3.75
2022-10-24T01:18:18.326Z,3.55
2022-10-24T01:21:25.009Z,3.55
2022-10-24T01:24:01.390Z,3.65
2022-10-24T01:27:06.433Z,3.45
2022-10-24T01:30:02.414Z,3.50
2022-10-24T01:35:11.061Z,3.47
2022-10-24T01:37:43.949Z,3.80
2022-10-24T01:40:26.078Z,3.25
2022-10-24T01:42:56.851Z,3.50
2022-10-24T01:45:30.708Z,4.15
2022-10-24T01:48:00.889Z,3.38
2022-10-24T01:50:29.397Z,3.60
2022-10-24T01:52:57.802Z,3.78
2022-10-24T01:55:24.670Z,3.72
2022-10-24T01:57:51.141Z,3.47
2022-10-24T02:00:23.283Z,3.35
2022-10-24T02:02:57.581Z,3.15
2022-10-24T02:05:29.009Z,3.73
2022-10-24T02:08:00.902Z,3.45
2022-10-24T02:10:31.398Z,3.28
2022-10-24T02:13:28.222Z,4.25
2022-10-24T02:15:58.560Z,3.65
2022-10-24T02:18:26.115Z,3.95
2022-10-24T02:20:59.140Z,3.22
2022-10-24T02:24:05.497Z,3.72
2022-10-24T02:29:14.303Z,3.25
2022-10-24T02:31:47.160Z,3.55
2022-10-24T02:34:14.901Z,3.53
2022-10-24T02:36:44.014Z,3.30
2022-10-24T02:39:12.085Z,3.67
2022-10-24T02:41:42.819Z,3.90
2022-10-24T02:44:11.000Z,4.15
2022-10-24T02:46:38.665Z,3.75
2022-10-24T02:49:06.159Z,3.60
2022-10-24T02:51:37.010Z,3.50
2022-10-24T02:54:04.696Z,3.13
2022-10-24T02:56:32.902Z,3.30
2022-10-24T02:58:59.466Z,3.38
2022-10-24T03:01:26.259Z,4.63
2022-10-24T03:03:52.766Z,3.58
2022-10-24T03:06:19.628Z,4.05
2022-10-24T03:08:46.054Z,3.40
2022-10-24T03:11:12.768Z,3.72
2022-10-24T03:13:39.222Z,3.60
2022-10-24T03:16:07.804Z,3.40
2022-10-24T03:18:36.792Z,3.50
2022-10-24T03:21:03.487Z,3.20
2022-10-24T03:23:30.626Z,3.55
2022-10-24T03:25:59.110Z,3.60
2022-10-24T03:28:26.024Z,3.50
2022-10-24T03:30:53.285Z,2.88
2022-10-24T03:33:20.248Z,3.28
2022-10-24T03:35:46.802Z,2.90
2022-10-24T03:38:13.291Z,3.17
2022-10-24T03:40:39.916Z,3.15
2022-10-24T03:43:06.441Z,3.17
2022-10-24T03:45:33.108Z,3.30
2022-10-24T03:47:59.555Z,2.47
2022-10-24T03:50:26.153Z,3.17
2022-10-24T03:52:52.577Z,2.88
2022-10-24T03:55:19.177Z,3.30
2022-10-24T03:57:45.883Z,2.42
2022-10-24T04:00:13.459Z,3.13
2022-10-24T04:02:41.649Z,3.00
2022-10-24T04:05:10.648Z,2.33
2022-10-24T04:07:37.398Z,3.30
2022-10-24T04:10:04.851Z,3.30
2022-10-24T04:12:31.649Z,3.15
2022-10-24T04:15:02.379Z,2.80
2022-10-24T04:17:31.494Z,2.35
2022-10-24T04:19:58.084Z,2.70
2022-10-24T04:22:24.771Z,2.40
2022-10-24T04:24:51.254Z,2.72
2022-10-24T04:27:17.731Z,2.95
2022-10-24T04:29:44.336Z,2.95
2022-10-24T04:32:10.772Z,2.78
2022-10-24T04:34:37.539Z,2.42
2022-10-24T04:37:04.112Z,2.67
2022-10-24T04:39:30.810Z,2.40
2022-10-24T04:41:57.397Z,2.75
2022-10-24T04:44:25.264Z,2.55
2022-10-24T04:46:51.767Z,2.20
2022-10-24T04:49:18.796Z,2.35
2022-10-24T04:51:45.690Z,2.70
2022-10-24T04:54:12.143Z,2.25
2022-10-24T04:56:38.771Z,2.40
2022-10-24T04:59:05.229Z,2.47
2022-10-24T05:01:32.873Z,2.25
2022-10-24T05:03:59.380Z,2.58
2022-10-24T05:06:26.057Z,2.88
2022-10-24T05:08:53.164Z,2.33
2022-10-24T05:11:19.764Z,1.83
2022-10-24T05:13:46.325Z,2.15
2022-10-24T05:16:12.781Z,2.42
2022-10-24T05:18:39.309Z,2.72
2022-10-24T05:21:06.309Z,2.92
2022-10-24T05:23:33.095Z,2.65
2022-10-24T05:25:59.596Z,2.38
2022-10-24T05:28:26.231Z,1.80
2022-10-24T05:30:53.574Z,2.47
2022-10-24T05:33:20.191Z,2.67
2022-10-24T05:35:46.720Z,2.83
2022-10-24T05:38:13.407Z,2.00
2022-10-24T05:40:40.004Z,3.47
2022-10-24T05:43:06.513Z,2.63
2022-10-24T05:45:33.238Z,2.50
2022-10-24T05:47:59.728Z,2.42
2022-10-24T05:50:27.052Z,2.33
2022-10-24T05:52:53.889Z,2.50
2022-10-24T05:55:20.450Z,2.60
2022-10-24T05:57:47.429Z,2.35
2022-10-24T06:00:17.272Z,2.40
2022-10-24T06:02:44.442Z,3.00
2022-10-24T06:05:12.062Z,2.05
2022-10-24T06:07:39.656Z,2.65
2022-10-24T06:10:06.784Z,2.17
2022-10-24T06:12:33.365Z,2.45
2022-10-24T06:15:00.387Z,2.40
2022-10-24T06:17:27.129Z,2.58
2022-10-24T06:19:53.740Z,2.17
2022-10-24T06:22:24.004Z,2.00
2022-10-24T06:24:51.026Z,2.90
2022-10-24T06:27:17.493Z,2.50
2022-10-24T06:29:44.009Z,2.25
2022-10-24T06:32:10.568Z,2.22
2022-10-24T06:34:37.110Z,2.20
2022-10-24T06:37:03.871Z,2.78
2022-10-24T06:39:30.543Z,2.13
2022-10-24T06:41:57.044Z,1.95
2022-10-24T06:44:23.507Z,2.00
2022-10-24T06:46:50.001Z,2.38
2022-10-24T06:49:17.230Z,2.40
2022-10-24T06:51:44.022Z,2.45
2022-10-24T06:54:11.104Z,2.22
2022-10-24T06:56:37.728Z,2.58
2022-10-24T06:59:14.060Z,2.65
2022-10-24T07:01:40.749Z,2.15
2022-10-24T07:04:08.222Z,2.30
2022-10-24T07:06:35.076Z,2.05
2022-10-24T07:09:03.941Z,2.90
2022-10-24T07:11:31.307Z,3.17
2022-10-24T07:14:00.887Z,2.30
2022-10-24T07:16:28.794Z,2.20
2022-10-24T07:18:56.546Z,2.00
2022-10-24T07:21:29.492Z,2.65
2022-10-24T07:23:56.962Z,2.38
2022-10-24T07:26:25.309Z,1.85
2022-10-24T07:28:58.416Z,2.08
2022-10-24T07:31:28.937Z,2.08
2022-10-24T07:33:55.645Z,2.00
2022-10-24T07:36:24.974Z,1.90
2022-10-24T07:38:53.269Z,2.08
2022-10-24T07:41:20.185Z,1.83
2022-10-24T07:43:46.757Z,2.13
2022-10-24T07:46:15.515Z,1.67
2022-10-24T07:48:42.516Z,1.70
2022-10-24T07:51:11.383Z,2.03
2022-10-24T07:53:38.224Z,2.53
2022-10-24T07:56:09.299Z,1.58
2022-10-24T07:58:36.652Z,1.80
2022-10-24T08:01:05.775Z,2.00
2022-10-24T08:03:32.249Z,1.55
2022-10-24T08:05:59.042Z,2.05
2022-10-24T08:08:35.935Z,1.90
2022-10-24T08:11:12.013Z,1.38
2022-10-24T08:13:39.049Z,1.92
2022-10-24T08:16:10.433Z,1.70
2022-10-24T08:18:39.737Z,1.85
2022-10-24T08:21:09.257Z,1.60
2022-10-24T08:23:40.139Z,1.50
2022-10-24T08:26:08.434Z,2.28
2022-10-24T08:28:36.037Z,1.80
2022-10-24T08:31:06.203Z,1.83
2022-10-24T08:33:33.514Z,1.98
2022-10-24T08:36:03.907Z,1.40
2022-10-24T08:38:30.856Z,1.58
2022-10-24T08:40:58.553Z,1.50
2022-10-24T08:43:26.073Z,1.40
2022-10-24T08:46:08.587Z,1.58
2022-10-24T08:48:44.075Z,1.60
2022-10-24T08:51:38.730Z,1.42
2022-10-24T08:54:10.161Z,1.55
2022-10-24T08:56:36.700Z,1.45
2022-10-24T08:59:04.786Z,1.90
2022-10-24T09:02:00.583Z,1.80
2022-10-24T09:04:36.585Z,1.42
2022-10-24T09:07:04.961Z,1.30
2022-10-24T09:09:40.549Z,1.63
2022-10-24T09:12:13.479Z,1.50
2022-10-24T09:14:42.341Z,1.80
2022-10-24T09:17:34.921Z,1.40
2022-10-24T09:20:15.490Z,1.38
2022-10-24T09:22:44.392Z,0.90
2022-10-24T09:25:16.929Z,1.65
2022-10-24T09:27:44.253Z,1.83
2022-10-24T09:30:37.505Z,1.70
2022-10-24T09:33:33.681Z,1.50
2022-10-24T09:36:04.447Z,1.58
2022-10-24T09:38:34.740Z,1.35
2022-10-24T09:41:05.847Z,1.30
2022-10-24T09:43:48.128Z,1.42
2022-10-24T09:46:24.076Z,1.20
2022-10-24T09:49:18.872Z,1.10
2022-10-24T09:52:21.487Z,2.22
2022-10-24T09:55:18.588Z,1.50
2022-10-24T09:57:45.563Z,1.25
2022-10-24T10:00:41.651Z,1.58
2022-10-24T10:05:54.232Z,1.27
2022-10-24T10:08:27.082Z,1.10
2022-10-24T10:10:59.382Z,1.38
2022-10-24T10:13:28.096Z,1.27
2022-10-24T10:16:02.695Z,1.13
2022-10-24T10:18:29.105Z,1.25
2022-10-24T10:21:01.735Z,1.15
2022-10-24T10:23:32.975Z,1.33
2022-10-24T10:26:07.691Z,1.25
2022-10-24T10:28:36.870Z,1.60
2022-10-24T10:31:04.123Z,1.10
2022-10-24T10:33:41.300Z,1.40
2022-10-24T10:36:10.840Z,1.08
2022-10-24T10:39:14.922Z,1.10
2022-10-24T10:42:01.504Z,1.00
2022-10-24T10:44:37.345Z,1.40
2022-10-24T10:47:23.901Z,2.25
2022-10-24T10:49:57.855Z,1.23
2022-10-24T10:52:50.594Z,1.10
2022-10-24T10:55:23.947Z,1.33
2022-10-24T10:58:20.494Z,2.03
2022-10-24T11:00:55.669Z,1.38
2022-10-24T11:06:14.148Z,1.20
2022-10-24T11:09:02.771Z,1.00
2022-10-24T11:11:33.678Z,1.10
2022-10-24T11:14:25.228Z,1.45
2022-10-24T11:16:56.617Z,1.30
2022-10-24T11:19:39.784Z,1.00
2022-10-24T11:22:12.726Z,1.45
2022-10-24T11:24:49.038Z,1.67
2022-10-24T11:27:24.389Z,0.90
2022-10-24T11:29:59.073Z,1.38
2022-10-24T11:32:41.413Z,1.20
2022-10-24T11:35:22.294Z,1.27
2022-10-24T11:37:53.425Z,1.35
2022-10-24T11:40:22.898Z,1.40
2022-10-24T11:42:58.908Z,1.00
2022-10-24T11:45:37.620Z,1.35
2022-10-24T11:48:20.376Z,0.70
2022-10-24T11:51:03.479Z,1.25
2022-10-24T11:53:31.158Z,1.00
2022-10-24T11:56:13.452Z,1.52
2022-10-24T11:58:55.028Z,1.08
2022-10-24T12:01:24.249Z,1.17
2022-10-24T12:04:39.295Z,1.15
2022-10-24T12:07:08.395Z,1.10
2022-10-24T12:09:37.760Z,1.30
2022-10-24T12:12:17.077Z,0.85
2022-10-24T12:14:59.041Z,1.40
2022-10-24T12:17:45.469Z,3.55
2022-10-24T12:20:17.730Z,1.10
2022-10-24T12:22:45.533Z,1.20
2022-10-24T12:25:38.903Z,1.13
2022-10-24T12:28:21.479Z,1.30
2022-10-24T12:31:15.847Z,1.02
2022-10-24T12:33:44.003Z,1.08
2022-10-24T12:36:11.043Z,1.23
2022-10-24T12:38:37.502Z,1.38
2022-10-24T12:41:09.176Z,0.98
2022-10-24T12:43:36.839Z,1.08
2022-10-24T12:46:21.738Z,1.27
2022-10-24T12:48:58.055Z,1.10
2022-10-24T12:51:37.327Z,1.30
2022-10-24T12:54:03.734Z,0.80
2022-10-24T12:56:32.622Z,1.00
2022-10-24T12:59:22.632Z,1.30
2022-10-24T13:01:51.846Z,1.40
2022-10-24T13:04:45.760Z,0.90
2022-10-24T13:07:51.401Z,1.23
2022-10-24T13:10:36.968Z,0.80
2022-10-24T13:15:57.007Z,1.10
2022-10-24T13:18:54.252Z,1.10
2022-10-24T13:21:28.598Z,0.98
2022-10-24T13:24:15.239Z,1.25
2022-10-24T13:26:47.558Z,0.90
2022-10-24T13:29:28.540Z,1.47
2022-10-24T13:32:04.434Z,1.10
2022-10-24T13:34:45.706Z,1.10
2022-10-24T13:37:26.524Z,1.00
2022-10-24T13:39:57.621Z,1.40
2022-10-24T13:42:26.630Z,1.88
2022-10-24T13:44:58.957Z,1.15
2022-10-24T13:47:28.111Z,1.45
2022-10-24T13:50:04.796Z,1.45
2022-10-24T13:52:54.772Z,1.10
2022-10-24T13:55:36.296Z,1.02
2022-10-24T13:58:05.686Z,1.00
2022-10-24T14:00:36.143Z,1.10
2022-10-24T14:03:16.921Z,1.00
2022-10-24T14:06:01.579Z,1.27
2022-10-24T14:08:37.465Z,0.82
2022-10-24T14:11:18.568Z,1.88
2022-10-24T14:14:10.972Z,0.80
2022-10-24T14:16:39.539Z,1.20
2022-10-24T14:19:17.689Z,1.08
2022-10-24T14:21:46.627Z,0.73
2022-10-24T14:24:20.374Z,1.38
2022-10-24T14:26:49.357Z,1.40
2022-10-24T14:29:27.803Z,1.40
2022-10-24T14:31:58.352Z,0.90
2022-10-24T14:34:25.703Z,1.00
2022-10-24T14:36:53.468Z,0.90
2022-10-24T14:39:23.843Z,1.10
2022-10-24T14:41:52.357Z,1.02
2022-10-24T14:44:24.213Z,1.15
2022-10-24T14:47:06.178Z,1.23
2022-10-24T14:49:36.682Z,1.55
2022-10-24T14:52:16.854Z,1.17
2022-10-24T14:54:52.474Z,1.02
2022-10-24T14:57:21.751Z,0.90
2022-10-24T14:59:52.507Z,1.23
2022-10-24T15:02:37.583Z,1.33
2022-10-24T15:05:15.307Z,1.20
2022-10-24T15:07:57.161Z,0.93
2022-10-24T15:10:35.268Z,1.05
2022-10-24T15:13:12.288Z,1.05
2022-10-24T15:15:57.476Z,0.95
2022-10-24T15:18:30.872Z,0.98
2022-10-24T15:21:13.874Z,1.10
2022-10-24T15:23:49.173Z,1.13
2022-10-24T15:26:32.929Z,1.23
2022-10-24T15:29:02.299Z,1.33
2022-10-24T15:31:31.735Z,1.30
2022-10-24T15:33:58.226Z,1.50
2022-10-24T15:36:31.629Z,1.35
2022-10-24T15:39:19.106Z,1.63
2022-10-24T15:41:46.060Z,1.30
2022-10-24T15:44:20.997Z,1.20
2022-10-24T15:46:48.661Z,1.25
2022-10-24T15:49:16.546Z,1.10
2022-10-24T15:51:49.025Z,1.10
2022-10-24T15:54:19.301Z,1.70
2022-10-24T15:56:47.019Z,1.35
2022-10-24T15:59:13.610Z,1.23
2022-10-24T16:01:48.390Z,2.42
2022-10-24T16:04:15.752Z,1.15
2022-10-24T16:06:42.574Z,1.10
2022-10-24T16:09:17.602Z,1.27
2022-10-24T16:11:44.418Z,1.45
2022-10-24T16:14:22.290Z,1.98
2022-10-24T16:16:49.118Z,1.33
2022-10-24T16:19:15.565Z,1.40
2022-10-24T16:21:42.387Z,1.30
2022-10-24T16:24:12.365Z,1.55
2022-10-24T16:26:38.939Z,1.15
2022-10-24T16:29:05.879Z,1.50
2022-10-24T16:31:32.508Z,1.63
2022-10-24T16:33:59.741Z,1.95
2022-10-24T16:36:27.209Z,1.30
2022-10-24T16:38:53.778Z,1.50
2022-10-24T16:41:25.856Z,1.23
2022-10-24T16:43:57.235Z,1.45
2022-10-24T16:46:26.019Z,1.13
2022-10-24T16:48:52.998Z,1.77
2022-10-24T16:51:24.577Z,1.67
2022-10-24T16:53:51.370Z,1.58
2022-10-24T16:56:17.809Z,1.30
2022-10-24T16:58:44.576Z,1.42
2022-10-24T17:01:14.338Z,2.30
2022-10-24T17:03:41.325Z,1.27
2022-10-24T17:06:08.415Z,1.20
2022-10-24T17:08:34.966Z,1.58
2022-10-24T17:11:01.541Z,1.38
2022-10-24T17:13:28.971Z,1.63
2022-10-24T17:15:56.441Z,1.67
2022-10-24T17:18:25.498Z,1.75
2022-10-24T17:20:58.805Z,2.10
2022-10-24T17:23:26.593Z,1.50
2022-10-24T17:25:53.937Z,1.65
2022-10-24T17:28:20.564Z,1.67
2022-10-24T17:30:48.318Z,1.70
2022-10-24T17:33:15.033Z,1.40
2022-10-24T17:35:55.182Z,1.70
2022-10-24T17:38:48.993Z,1.95
2022-10-24T17:41:25.002Z,1.70
2022-10-24T17:43:53.673Z,1.30
2022-10-24T17:46:20.588Z,1.50
2022-10-24T17:48:47.280Z,1.58
2022-10-24T17:51:17.892Z,1.80
2022-10-24T17:53:45.048Z,1.73
2022-10-24T17:58:43.822Z,1.92
2022-10-24T18:01:11.815Z,1.60
2022-10-24T18:03:38.795Z,1.65
2022-10-24T18:06:07.338Z,1.60
2022-10-24T18:08:33.996Z,1.40
2022-10-24T18:11:05.625Z,1.40
2022-10-24T18:13:34.922Z,2.10
2022-10-24T18:16:09.276Z,1.48
2022-10-24T18:18:36.212Z,1.90
2022-10-24T18:21:24.649Z,1.33
2022-10-24T18:23:52.356Z,1.90
2022-10-24T18:26:22.856Z,1.40
2022-10-24T18:28:51.208Z,1.23
2022-10-24T18:31:21.182Z,1.23
2022-10-24T18:33:48.897Z,1.95
2022-10-24T18:36:20.474Z,1.35
2022-10-24T18:38:47.139Z,1.25
2022-10-24T18:41:29.275Z,1.77
2022-10-24T18:43:57.505Z,1.67
2022-10-24T18:46:24.958Z,1.85
2022-10-24T18:48:52.106Z,1.50
2022-10-24T18:51:55.119Z,1.50
2022-10-24T18:54:21.746Z,1.77
2022-10-24T18:56:49.734Z,1.60
2022-10-24T18:59:20.658Z,1.50
2022-10-24T19:02:29.689Z,1.77
2022-10-24T19:05:15.659Z,1.90
2022-10-24T19:07:42.856Z,1.67
2022-10-24T19:10:24.592Z,1.77
2022-10-24T19:12:51.869Z,1.35
2022-10-24T19:15:19.318Z,1.55
2022-10-24T19:17:47.339Z,1.73
2022-10-24T19:20:20.235Z,1.77
2022-10-24T19:22:47.453Z,1.80
2022-10-24T19:25:15.217Z,1.40
2022-10-24T19:27:42.434Z,1.45
2022-10-24T19:30:11.395Z,1.55
2022-10-24T19:32:37.935Z,1.65
2022-10-24T19:35:04.791Z,1.35
2022-10-24T19:37:31.929Z,1.83
2022-10-24T19:39:58.661Z,1.63
2022-10-24T19:42:26.378Z,1.80
2022-10-24T19:44:56.157Z,1.90
2022-10-24T19:47:22.833Z,1.70
2022-10-24T19:49:50.122Z,1.75
2022-10-24T19:52:16.908Z,1.45
2022-10-24T19:54:43.751Z,1.60
2022-10-24T19:57:11.405Z,1.23
2022-10-24T19:59:38.163Z,1.73
2022-10-24T20:02:05.313Z,2.08
2022-10-24T20:04:33.182Z,1.75
2022-10-24T20:06:59.749Z,2.13
2022-10-24T20:09:26.174Z,1.73
2022-10-24T20:11:52.715Z,1.70
2022-10-24T20:14:19.379Z,1.65
2022-10-24T20:16:46.020Z,1.80
2022-10-24T20:19:12.449Z,1.70
2022-10-24T20:21:39.131Z,1.80
2022-10-24T20:24:06.213Z,1.63
2022-10-24T20:26:33.191Z,2.47
2022-10-24T20:28:59.713Z,1.40
2022-10-24T20:31:33.805Z,2.78
2022-10-24T20:34:06.722Z,1.65
2022-10-24T20:36:35.907Z,2.10
2022-10-24T20:39:02.469Z,2.00
2022-10-24T20:41:29.455Z,1.67
2022-10-24T20:43:56.143Z,1.83
2022-10-24T20:46:23.274Z,2.00
2022-10-24T20:48:49.682Z,1.83
2022-10-24T20:51:18.562Z,1.30
2022-10-24T20:53:45.455Z,1.60
2022-10-24T20:56:17.808Z,1.88
2022-10-24T20:58:45.106Z,1.60
2022-10-24T21:01:15.396Z,1.45
2022-10-24T21:03:43.113Z,1.48
2022-10-24T21:06:23.238Z,1.65
2022-10-24T21:08:51.161Z,1.85
2022-10-24T21:11:25.047Z,1.50
2022-10-24T21:13:53.993Z,1.40
2022-10-24T21:16:20.734Z,1.50
2022-10-24T21:18:47.241Z,1.40
2022-10-24T21:21:15.715Z,2.10
2022-10-24T21:23:42.548Z,1.42
2022-10-24T21:26:12.290Z,1.55
2022-10-24T21:28:39.467Z,1.55
2022-10-24T21:31:11.547Z,1.95
2022-10-24T21:33:41.245Z,1.90
2022-10-24T21:36:19.513Z,1.83
2022-10-24T21:38:47.836Z,1.30
2022-10-24T21:41:14.839Z,1.38
2022-10-24T21:43:42.230Z,1.40
2022-10-24T21:46:20.631Z,1.60
2022-10-24T21:48:49.803Z,1.40
2022-10-24T21:51:21.889Z,1.40
2022-10-24T21:53:51.216Z,2.95
2022-10-24T21:56:20.274Z,0.90
2022-10-24T21:58:48.476Z,1.40
2022-10-24T22:01:19.198Z,1.80
2022-10-24T22:03:46.230Z,1.15
2022-10-24T22:06:16.470Z,1.10
2022-10-24T22:08:44.186Z,1.38
2022-10-24T22:11:14.337Z,1.08
2022-10-24T22:13:41.500Z,1.38
2022-10-24T22:16:10.381Z,1.38
2022-10-24T22:18:37.430Z,1.23
2022-10-24T22:21:06.049Z,1.92
2022-10-24T22:23:33.085Z,1.25
2022-10-24T22:26:01.952Z,1.30
2022-10-24T22:28:28.724Z,1.52
2022-10-24T22:30:55.756Z,1.50
2022-10-24T22:33:32.089Z,1.25
2022-10-24T22:36:03.074Z,1.83
2022-10-24T22:38:29.870Z,1.58
2022-10-24T22:40:56.666Z,1.30
2022-10-24T22:43:23.348Z,1.70
2022-10-24T22:46:28.223Z,1.30
2022-10-24T22:48:59.561Z,1.50
2022-10-24T22:51:26.861Z,1.38
2022-10-24T22:53:53.549Z,1.38
2022-10-24T22:56:27.745Z,1.90
2022-10-24T22:58:54.484Z,1.40
2022-10-24T23:01:50.657Z,1.40
2022-10-24T23:04:40.827Z,1.45
2022-10-24T23:07:28.746Z,1.35
2022-10-24T23:09:55.269Z,1.50
2022-10-24T23:12:23.162Z,1.63
2022-10-24T23:14:50.512Z,1.40
2022-10-24T23:17:28.804Z,1.77
2022-10-24T23:19:56.678Z,1.60
2022-10-24T23:22:28.410Z,1.60
2022-10-24T23:24:58.327Z,1.08
2022-10-24T23:27:44.678Z,1.50
2022-10-24T23:30:22.600Z,1.52
2022-10-24T23:32:50.590Z,1.10
2022-10-24T23:35:19.609Z,0.88
2022-10-24T23:37:48.570Z,1.20
2022-10-24T23:40:17.870Z,1.40
2022-10-24T23:42:45.847Z,1.60
2022-10-24T23:45:18.007Z,1.25
2022-10-24T23:48:27.860Z,1.55
2022-10-24T23:51:02.028Z,1.30
2022-10-24T23:53:34.256Z,1.83
2022-10-24T23:56:01.053Z,1.60
2022-10-24T23:58:27.552Z,1.30
